Time;durP1;ratioP1;P1;durP2;ratioP2;P2;SDS_P1;SDS_P2;PMS_P1;PMS_P2;Temp;Humidity;BMP_temperature;BMP_pressure;BME280_temperature;BME280_humidity;BME280_pressure;Samples;Min_cycle;Max_cycle;Signal;HPM_P1;HPM_P2
2021/03/18 00:00:42;;;;;;;11.30;6.63;;;3.40;1.00;;;;;;5034623;28;20227;-75
2021/03/18 00:03:09;;;;;;;15.63;6.38;;;3.40;1.00;;;;;;5002019;28;20286;-74
2021/03/18 00:05:36;;;;;;;8.77;5.97;;;3.40;91.80;;;;;;5035579;28;20219;-74
2021/03/18 00:08:03;;;;;;;15.98;7.20;;;3.30;99.90;;;;;;5017666;28;20201;-75
2021/03/18 00:10:30;;;;;;;7.25;5.43;;;3.30;99.90;;;;;;5037844;28;20206;-74
2021/03/18 00:12:57;;;;;;;10.68;6.28;;;3.30;99.90;;;;;;5041211;28;20525;-74
2021/03/18 00:15:24;;;;;;;7.63;5.43;;;3.30;99.90;;;;;;5051635;28;20214;-75
2021/03/18 00:17:51;;;;;;;9.70;6.03;;;3.30;99.90;;;;;;5053015;28;20245;-75
2021/03/18 00:20:19;;;;;;;9.32;6.15;;;3.30;99.90;;;;;;5053147;28;20195;-74
2021/03/18 00:22:48;;;;;;;9.23;5.65;;;3.20;99.90;;;;;;5025729;28;20211;-75
2021/03/18 00:25:16;;;;;;;12.07;6.07;;;3.20;99.90;;;;;;5017488;28;20280;-74
2021/03/18 00:27:44;;;;;;;8.48;5.40;;;3.20;99.90;;;;;;5035109;28;20202;-74
2021/03/18 00:30:13;;;;;;;11.48;7.30;;;3.20;99.90;;;;;;5017590;28;20556;-75
2021/03/18 00:32:40;;;;;;;11.50;5.95;;;3.20;99.90;;;;;;5036459;28;20201;-75
2021/03/18 00:35:10;;;;;;;14.00;6.90;;;3.20;1.00;;;;;;5017655;28;20230;-74
2021/03/18 00:37:38;;;;;;;8.05;6.00;;;3.10;1.00;;;;;;5030416;28;20195;-75
2021/03/18 00:40:09;;;;;;;10.57;5.88;;;3.10;1.00;;;;;;5032220;28;20195;-74
2021/03/18 00:42:35;;;;;;;9.27;5.70;;;3.10;1.00;;;;;;5032344;28;20615;-74
2021/03/18 00:45:02;;;;;;;11.13;6.32;;;3.10;1.00;;;;;;5022990;28;20215;-75
2021/03/18 00:47:28;;;;;;;16.60;6.45;;;3.10;1.00;;;;;;5016202;28;20797;-75
2021/03/18 00:49:55;;;;;;;11.05;5.97;;;3.10;1.00;;;;;;5018583;28;20286;-74
2021/03/18 00:52:21;;;;;;;12.43;6.53;;;3.10;1.00;;;;;;5011960;28;20204;-74
2021/03/18 00:54:48;;;;;;;10.95;5.72;;;3.00;1.00;;;;;;5012187;28;20672;-75
2021/03/18 00:57:16;;;;;;;9.20;5.72;;;3.00;42.90;;;;;;5012457;28;20224;-75
2021/03/18 00:59:42;;;;;;;8.63;5.68;;;3.00;90.30;;;;;;5013023;28;20202;-75
2021/03/18 01:02:09;;;;;;;10.90;6.40;;;3.00;97.00;;;;;;5014533;28;20214;-74
2021/03/18 01:04:35;;;;;;;7.45;5.80;;;3.00;99.90;;;;;;5013836;28;20230;-75
2021/03/18 01:07:02;;;;;;;10.60;5.80;;;3.00;99.90;;;;;;5014661;28;20285;-75
2021/03/18 01:09:29;;;;;;;10.88;6.60;;;3.00;99.90;;;;;;5016228;28;20563;-75
2021/03/18 01:11:55;;;;;;;10.65;6.95;;;3.00;99.90;;;;;;5017736;28;20192;-75
2021/03/18 01:14:23;;;;;;;9.25;5.72;;;3.00;99.90;;;;;;5012084;28;20238;-75
2021/03/18 01:16:52;;;;;;;11.02;5.68;;;2.90;99.90;;;;;;5011222;28;20318;-74
2021/03/18 01:19:21;;;;;;;10.45;6.93;;;3.00;99.90;;;;;;5012284;28;20202;-75
2021/03/18 01:21:49;;;;;;;7.85;5.90;;;3.00;99.90;;;;;;5011618;28;20199;-75
2021/03/18 01:24:16;;;;;;;10.60;5.97;;;3.00;99.90;;;;;;4997037;28;20277;-74
2021/03/18 01:26:44;;;;;;;9.70;5.80;;;3.00;99.90;;;;;;5014207;28;20231;-75
2021/03/18 01:29:12;;;;;;;11.95;6.13;;;3.00;1.00;;;;;;5012889;28;20202;-74
2021/03/18 01:31:40;;;;;;;8.88;5.97;;;3.00;1.00;;;;;;5014606;28;20191;-74
2021/03/18 01:34:07;;;;;;;12.13;5.68;;;3.00;1.00;;;;;;5017185;28;20329;-75
2021/03/18 01:36:35;;;;;;;8.23;6.10;;;3.00;1.00;;;;;;5030023;28;20227;-74
2021/03/18 01:39:02;;;;;;;8.63;6.10;;;3.00;1.00;;;;;;5014068;28;20202;-76
2021/03/18 01:41:29;;;;;;;10.50;5.95;;;3.00;1.00;;;;;;4997329;28;20192;-74
2021/03/18 01:43:56;;;;;;;7.30;5.72;;;3.00;1.00;;;;;;5014112;28;20245;-75
2021/03/18 01:46:23;;;;;;;8.15;6.25;;;3.00;1.00;;;;;;5033802;28;20559;-74
2021/03/18 01:48:51;;;;;;;8.05;6.30;;;3.00;1.00;;;;;;5033343;28;20694;-75
2021/03/18 01:51:20;;;;;;;10.38;6.32;;;3.00;1.00;;;;;;5016024;28;20199;-75
2021/03/18 01:53:47;;;;;;;9.63;5.78;;;3.00;1.00;;;;;;5017356;28;20249;-74
2021/03/18 01:56:14;;;;;;;11.57;5.85;;;3.00;1.00;;;;;;5037321;28;20280;-75
2021/03/18 01:58:44;;;;;;;7.82;6.20;;;3.00;1.00;;;;;;5014146;28;20216;-75
2021/03/18 02:01:12;;;;;;;9.45;6.45;;;2.90;1.00;;;;;;5033641;28;20199;-74
2021/03/18 02:03:40;;;;;;;8.63;5.90;;;2.90;1.00;;;;;;5033421;28;20605;-75
2021/03/18 02:06:08;;;;;;;9.02;5.70;;;2.90;1.00;;;;;;5046806;28;20199;-75
2021/03/18 02:08:35;;;;;;;9.30;5.65;;;2.90;1.00;;;;;;5032722;28;20652;-74
2021/03/18 02:11:01;;;;;;;11.10;5.82;;;2.90;1.00;;;;;;5015736;28;20218;-74
2021/03/18 02:13:28;;;;;;;7.60;5.63;;;2.90;1.00;;;;;;5033329;28;20602;-74
2021/03/18 02:15:58;;;;;;;11.77;6.70;;;2.90;1.00;;;;;;5034412;28;20305;-75
2021/03/18 02:18:33;;;;;;;7.68;5.72;;;2.90;1.00;;;;;;5037183;28;20206;-74
2021/03/18 02:21:25;;;;;;;8.18;6.05;;;2.90;1.00;;;;;;5031669;28;20278;-75
2021/03/18 02:24:10;;;;;;;8.65;6.40;;;2.90;1.00;;;;;;5029983;28;20218;-74
2021/03/18 02:26:55;;;;;;;9.02;5.80;;;2.90;1.00;;;;;;5030685;28;20289;-74
2021/03/18 02:29:40;;;;;;;8.45;5.78;;;2.80;1.00;;;;;;5032046;28;20199;-74
2021/03/18 02:32:21;;;;;;;7.75;5.65;;;2.80;1.00;;;;;;5033314;28;20199;-74
2021/03/18 02:35:11;;;;;;;14.27;7.05;;;2.80;1.00;;;;;;5033107;28;20325;-74
2021/03/18 02:37:43;;;;;;;8.25;6.07;;;2.80;1.00;;;;;;5032766;28;20234;-75
2021/03/18 02:40:15;;;;;;;11.68;6.90;;;2.80;1.00;;;;;;5036534;28;20224;-74
2021/03/18 02:42:45;;;;;;;11.68;7.63;;;2.80;1.00;;;;;;5014439;28;20191;-75
2021/03/18 02:45:13;;;;;;;10.93;6.68;;;2.80;1.00;;;;;;5013776;28;20219;-75
2021/03/18 02:47:42;;;;;;;9.82;7.00;;;2.80;1.00;;;;;;5030905;28;20570;-75
2021/03/18 02:50:12;;;;;;;13.48;7.15;;;2.80;1.00;;;;;;5030907;28;20225;-74
2021/03/18 02:52:42;;;;;;;14.30;7.88;;;2.80;1.00;;;;;;5033017;28;20198;-75
2021/03/18 02:55:11;;;;;;;15.98;8.57;;;2.80;1.00;;;;;;5036877;28;20219;-75
2021/03/18 02:57:40;;;;;;;13.77;8.00;;;2.70;1.00;;;;;;5036866;28;20223;-74
2021/03/18 03:00:10;;;;;;;17.50;8.25;;;2.70;1.00;;;;;;5036564;28;20652;-75
2021/03/18 03:02:38;;;;;;;11.57;7.90;;;2.70;1.00;;;;;;5022836;28;20199;-75
2021/03/18 03:05:06;;;;;;;12.07;7.93;;;2.70;1.00;;;;;;5048068;28;20707;-75
2021/03/18 03:07:34;;;;;;;14.43;8.00;;;2.70;1.00;;;;;;5054539;28;20248;-75
2021/03/18 03:10:04;;;;;;;17.58;7.85;;;2.70;1.00;;;;;;5054340;28;20197;-75
2021/03/18 03:12:33;;;;;;;10.27;7.18;;;2.60;1.00;;;;;;5053638;28;20200;-74
2021/03/18 03:15:01;;;;;;;12.75;8.40;;;2.70;1.00;;;;;;5018328;28;20230;-74
2021/03/18 03:17:28;;;;;;;14.27;8.55;;;2.70;1.00;;;;;;5018967;28;20223;-74
2021/03/18 03:19:58;;;;;;;9.95;7.63;;;2.70;1.00;;;;;;5018791;28;20567;-74
2021/03/18 03:22:25;;;;;;;12.13;8.50;;;2.60;1.00;;;;;;5036803;28;20644;-74
2021/03/18 03:24:53;;;;;;;11.50;8.10;;;2.70;1.00;;;;;;5006082;28;20207;-74
2021/03/18 03:27:23;;;;;;;10.80;7.65;;;2.70;1.00;;;;;;5036253;28;20652;-74
2021/03/18 03:29:51;;;;;;;11.20;7.75;;;2.70;1.00;;;;;;5033955;28;20209;-74
2021/03/18 03:32:17;;;;;;;8.90;7.53;;;2.70;1.00;;;;;;5033145;28;20195;-74
2021/03/18 03:34:45;;;;;;;13.65;7.57;;;2.70;1.00;;;;;;5034085;28;20296;-74
2021/03/18 03:37:12;;;;;;;9.90;8.00;;;2.70;1.00;;;;;;5017796;28;20326;-74
2021/03/18 03:39:39;;;;;;;13.43;8.55;;;2.70;1.00;;;;;;5036070;28;20195;-74
2021/03/18 03:42:08;;;;;;;14.68;8.57;;;2.70;1.00;;;;;;5018645;28;20587;-74
2021/03/18 03:44:36;;;;;;;13.55;9.38;;;2.80;1.00;;;;;;5035794;28;20219;-73
2021/03/18 03:47:04;;;;;;;13.68;8.63;;;2.80;1.00;;;;;;5039777;28;20265;-74
2021/03/18 03:49:31;;;;;;;13.27;8.27;;;2.80;1.00;;;;;;5027974;28;20199;-74
2021/03/18 03:52:07;;;;;;;13.77;7.30;;;2.80;1.00;;;;;;5053648;28;20274;-74
2021/03/18 03:54:38;;;;;;;11.15;8.38;;;2.80;1.00;;;;;;5053327;28;20573;-74
2021/03/18 03:57:12;;;;;;;11.38;7.82;;;2.80;1.00;;;;;;5053505;28;20218;-74
2021/03/18 03:59:41;;;;;;;16.17;9.40;;;2.80;1.00;;;;;;5016007;28;20223;-74
2021/03/18 04:02:10;;;;;;;13.25;8.45;;;2.80;11.00;;;;;;5015895;28;20200;-74
2021/03/18 04:04:40;;;;;;;11.10;7.35;;;2.80;21.40;;;;;;5014836;28;20224;-74
2021/03/18 04:07:10;;;;;;;11.60;8.20;;;2.80;18.20;;;;;;5018041;28;20641;-74
2021/03/18 04:09:38;;;;;;;12.50;8.07;;;2.80;10.80;;;;;;5039633;28;20187;-74
2021/03/18 04:12:07;;;;;;;13.85;8.20;;;2.80;1.00;;;;;;5035190;28;20197;-74
2021/03/18 04:14:37;;;;;;;11.88;8.25;;;2.80;1.00;;;;;;5033383;28;20215;-74
2021/03/18 04:17:08;;;;;;;22.70;9.23;;;2.80;1.00;;;;;;5032696;28;20223;-74
2021/03/18 04:19:35;;;;;;;12.15;8.77;;;2.80;1.00;;;;;;5028501;28;20395;-74
2021/03/18 04:22:02;;;;;;;10.75;7.65;;;2.80;1.00;;;;;;5030863;28;20204;-75
2021/03/18 04:24:30;;;;;;;17.25;9.63;;;2.80;1.00;;;;;;5035051;28;20254;-74
2021/03/18 04:26:58;;;;;;;12.98;8.40;;;2.70;1.00;;;;;;5035282;28;20202;-75
2021/03/18 04:29:25;;;;;;;12.13;9.43;;;2.70;1.00;;;;;;5035589;28;20241;-74
2021/03/18 04:31:54;;;;;;;12.15;8.65;;;2.70;1.00;;;;;;5038566;28;20256;-74
2021/03/18 04:34:22;;;;;;;13.23;9.13;;;2.70;1.00;;;;;;5046230;28;20214;-74
2021/03/18 04:36:49;;;;;;;12.35;9.38;;;2.70;1.00;;;;;;5052415;28;20309;-74
2021/03/18 04:39:16;;;;;;;14.00;9.00;;;2.70;24.50;;;;;;5052869;28;20198;-74
2021/03/18 04:41:44;;;;;;;15.50;9.80;;;2.70;26.40;;;;;;5052705;28;20302;-74
2021/03/18 04:44:13;;;;;;;19.50;9.38;;;2.70;1.00;;;;;;5014922;28;20226;-74
2021/03/18 04:46:43;;;;;;;11.20;8.38;;;2.70;6.10;;;;;;5015279;28;20204;-74
2021/03/18 04:49:10;;;;;;;14.88;9.38;;;2.70;25.90;;;;;;4997357;28;20667;-73
2021/03/18 04:51:38;;;;;;;13.07;9.43;;;2.80;20.60;;;;;;5017919;28;20942;-74
2021/03/18 04:54:05;;;;;;;11.15;9.15;;;2.80;42.20;;;;;;5038365;28;20307;-74
2021/03/18 04:56:32;;;;;;;11.25;8.48;;;2.80;58.80;;;;;;5046575;28;20625;-74
2021/03/18 04:59:01;;;;;;;23.38;9.88;;;2.80;56.40;;;;;;5052211;28;20191;-72
2021/03/18 05:01:30;;;;;;;13.40;9.55;;;2.80;1.00;;;;;;5052165;28;20652;-74
2021/03/18 05:03:58;;;;;;;13.10;9.60;;;2.80;1.00;;;;;;5050921;28;20635;-75
2021/03/18 05:06:27;;;;;;;14.00;9.55;;;2.90;1.00;;;;;;5033840;28;20201;-74
2021/03/18 05:08:55;;;;;;;15.20;10.40;;;2.90;1.00;;;;;;5034342;28;20202;-74
2021/03/18 05:11:22;;;;;;;18.55;9.98;;;2.90;1.00;;;;;;5034280;28;20195;-74
2021/03/18 05:13:50;;;;;;;19.48;10.50;;;2.90;1.00;;;;;;5034664;28;20219;-76
2021/03/18 05:16:18;;;;;;;17.17;10.20;;;3.00;1.00;;;;;;5019724;28;20222;-74
2021/03/18 05:18:45;;;;;;;16.23;10.90;;;3.00;1.00;;;;;;5045247;28;20199;-74
2021/03/18 05:21:12;;;;;;;12.52;9.52;;;2.90;1.00;;;;;;5040647;28;20198;-74
2021/03/18 05:23:40;;;;;;;15.32;10.45;;;2.90;1.00;;;;;;5017392;28;20197;-75
2021/03/18 05:26:08;;;;;;;13.70;9.40;;;2.90;1.00;;;;;;5013041;28;20342;-74
2021/03/18 05:28:35;;;;;;;13.32;8.98;;;2.90;1.00;;;;;;5034570;28;20286;-74
2021/03/18 05:31:02;;;;;;;10.70;9.57;;;3.00;1.00;;;;;;5037341;28;20201;-75
2021/03/18 05:33:28;;;;;;;11.35;9.93;;;3.00;1.00;;;;;;5031420;28;20191;-74
2021/03/18 05:35:55;;;;;;;20.05;9.38;;;3.00;1.00;;;;;;5050945;28;20226;-74
2021/03/18 05:38:22;;;;;;;16.70;9.73;;;2.90;1.00;;;;;;5032042;28;20277;-74
2021/03/18 05:40:54;;;;;;;20.98;10.57;;;2.90;1.00;;;;;;5032047;28;20195;-74
2021/03/18 05:43:22;;;;;;;18.30;10.23;;;2.90;1.00;;;;;;5016340;28;20576;-74
2021/03/18 05:45:49;;;;;;;15.45;8.63;;;2.90;1.00;;;;;;5033481;28;20757;-75
2021/03/18 05:48:17;;;;;;;12.13;9.07;;;2.90;1.00;;;;;;5033775;28;20191;-74
2021/03/18 05:50:44;;;;;;;12.63;9.48;;;2.90;1.00;;;;;;5034174;28;20285;-74
2021/03/18 05:53:11;;;;;;;12.30;9.15;;;2.90;1.00;;;;;;5037197;28;20205;-75
2021/03/18 05:55:38;;;;;;;11.68;10.10;;;2.90;1.00;;;;;;5030203;28;20215;-74
2021/03/18 05:58:06;;;;;;;16.17;10.48;;;2.90;1.00;;;;;;5033078;28;20263;-74
2021/03/18 06:00:35;;;;;;;18.05;10.95;;;3.00;1.00;;;;;;5051232;28;20210;-74
2021/03/18 06:03:01;;;;;;;20.52;10.77;;;3.00;1.00;;;;;;5047634;28;20199;-75
2021/03/18 06:05:28;;;;;;;15.15;9.45;;;3.00;1.00;;;;;;5033029;28;20298;-75
2021/03/18 06:07:55;;;;;;;13.40;10.80;;;3.00;1.00;;;;;;5015197;28;20652;-75
2021/03/18 06:10:23;;;;;;;19.75;10.27;;;3.00;1.00;;;;;;5015854;28;20653;-75
2021/03/18 06:12:51;;;;;;;13.75;9.60;;;3.00;1.00;;;;;;5016741;28;20682;-75
2021/03/18 06:15:20;;;;;;;12.95;10.10;;;3.00;1.00;;;;;;5019682;28;20253;-74
2021/03/18 06:17:49;;;;;;;12.00;8.98;;;3.00;1.00;;;;;;5045663;28;20210;-75
2021/03/18 06:20:18;;;;;;;14.00;10.07;;;3.00;1.00;;;;;;5033073;28;20594;-75
2021/03/18 06:22:46;;;;;;;18.45;9.98;;;3.00;1.00;;;;;;5033207;28;20194;-75
2021/03/18 06:25:24;;;;;;;16.55;10.57;;;3.00;1.00;;;;;;5031154;28;20260;-75
2021/03/18 06:28:11;;;;;;;11.90;9.75;;;3.00;1.00;;;;;;5035728;28;20203;-75
2021/03/18 06:30:38;;;;;;;20.23;12.18;;;3.00;1.00;;;;;;5019722;28;20194;-75
2021/03/18 06:33:18;;;;;;;20.00;10.70;;;3.00;1.00;;;;;;5003085;28;20199;-75
2021/03/18 06:35:45;;;;;;;13.30;10.27;;;3.10;1.00;;;;;;5020538;28;20237;-75
2021/03/18 06:38:11;;;;;;;20.50;10.65;;;3.10;1.00;;;;;;5040930;28;20252;-74
2021/03/18 06:40:41;;;;;;;14.63;11.05;;;3.10;1.00;;;;;;5052944;28;20190;-74
2021/03/18 06:43:08;;;;;;;21.05;11.43;;;3.10;1.00;;;;;;5036936;28;20201;-74
2021/03/18 06:45:37;;;;;;;18.20;11.85;;;3.20;1.00;;;;;;5054505;28;20206;-75
2021/03/18 06:48:07;;;;;;;14.90;10.93;;;3.20;1.00;;;;;;5031155;28;20214;-75
2021/03/18 06:50:37;;;;;;;16.90;11.77;;;3.20;1.00;;;;;;5036406;28;20282;-75
2021/03/18 06:53:17;;;;;;;16.27;10.43;;;3.30;1.00;;;;;;5036856;28;20202;-74
2021/03/18 06:55:43;;;;;;;31.02;18.58;;;3.30;1.00;;;;;;5018482;28;20306;-75
2021/03/18 06:58:17;;;;;;;22.67;14.80;;;3.30;1.00;;;;;;5039873;28;20286;-74
2021/03/18 07:00:46;;;;;;;17.00;13.32;;;3.40;1.00;;;;;;5012667;28;20183;-75
2021/03/18 07:03:24;;;;;;;25.40;13.35;;;3.40;1.00;;;;;;5042274;28;20715;-74
2021/03/18 07:05:51;;;;;;;18.13;11.80;;;3.40;1.00;;;;;;5034280;28;20227;-72
2021/03/18 07:08:23;;;;;;;17.23;12.32;;;3.50;3.80;;;;;;5034180;28;20562;-72
2021/03/18 07:10:50;;;;;;;18.15;11.50;;;3.50;18.90;;;;;;5035180;28;20626;-75
2021/03/18 07:13:18;;;;;;;19.63;11.90;;;3.60;36.90;;;;;;5036494;28;20647;-75
2021/03/18 07:15:44;;;;;;;15.75;10.60;;;3.60;50.40;;;;;;5017816;28;20223;-75
2021/03/18 07:18:11;;;;;;;15.27;10.90;;;3.60;55.30;;;;;;5036463;28;20665;-74
2021/03/18 07:20:38;;;;;;;22.10;12.55;;;3.70;28.90;;;;;;5022350;28;20271;-76
2021/03/18 07:23:14;;;;;;;18.15;11.68;;;3.80;7.80;;;;;;5044313;28;20246;-75
2021/03/18 07:25:46;;;;;;;19.55;15.60;;;3.90;42.20;;;;;;5038971;28;20210;-74
2021/03/18 07:28:14;;;;;;;20.08;15.35;;;3.90;1.00;;;;;;5016112;28;20200;-74
2021/03/18 07:30:42;;;;;;;19.75;14.93;;;4.00;1.00;;;;;;5033796;28;20193;-74
2021/03/18 07:33:09;;;;;;;20.35;15.38;;;4.00;1.00;;;;;;5018268;28;20722;-73
2021/03/18 07:35:36;;;;;;;29.25;18.63;;;4.10;1.00;;;;;;5035858;28;20238;-73
2021/03/18 07:38:04;;;;;;;53.22;29.58;;;4.10;1.00;;;;;;5035799;28;20223;-75
2021/03/18 07:40:32;;;;;;;34.30;22.73;;;4.10;1.00;;;;;;5035555;28;20280;-74
2021/03/18 07:43:00;;;;;;;36.92;23.13;;;4.20;1.00;;;;;;5038341;28;20637;-74
2021/03/18 07:45:28;;;;;;;41.35;25.52;;;4.20;1.00;;;;;;5008694;28;20600;-75
2021/03/18 07:47:55;;;;;;;41.50;26.52;;;4.30;1.00;;;;;;5053174;28;20250;-75
2021/03/18 07:50:28;;;;;;;48.45;28.85;;;4.30;1.00;;;;;;5036022;28;20285;-74
2021/03/18 07:52:57;;;;;;;40.25;26.15;;;4.30;1.00;;;;;;5053947;28;20198;-75
2021/03/18 07:55:25;;;;;;;39.22;26.27;;;4.30;1.00;;;;;;5041094;28;20270;-75
2021/03/18 07:57:52;;;;;;;35.47;23.10;;;4.40;1.00;;;;;;5035701;28;20316;-75
2021/03/18 08:00:21;;;;;;;45.08;26.23;;;4.40;1.00;;;;;;5034596;28;20231;-75
2021/03/18 08:02:48;;;;;;;40.58;27.25;;;4.40;1.00;;;;;;5035587;28;20607;-74
2021/03/18 08:05:37;;;;;;;45.97;28.30;;;4.50;1.00;;;;;;5037445;28;20309;-75
2021/03/18 08:08:05;;;;;;;50.88;26.75;;;4.50;1.00;;;;;;5023229;28;20668;-75
2021/03/18 08:10:41;;;;;;;50.17;28.40;;;4.50;1.00;;;;;;5015028;28;20204;-75
2021/03/18 08:13:09;;;;;;;45.75;29.10;;;4.60;1.00;;;;;;5033012;28;20195;-75
2021/03/18 08:15:46;;;;;;;40.50;26.55;;;4.60;99.90;;;;;;5032685;28;20268;-75
2021/03/18 08:18:31;;;;;;;47.55;28.70;;;4.60;99.90;;;;;;5017189;28;20324;-75
2021/03/18 08:21:02;;;;;;;40.17;26.35;;;4.60;99.90;;;;;;5035042;28;20670;-75
2021/03/18 08:23:40;;;;;;;48.47;26.00;;;4.70;99.90;;;;;;5016943;28;20202;-75
2021/03/18 08:26:10;;;;;;;44.47;25.65;;;4.70;99.90;;;;;;5035159;28;20201;-75
2021/03/18 08:28:41;;;;;;;38.13;26.02;;;4.70;99.90;;;;;;5021075;28;20207;-75
2021/03/18 08:31:10;;;;;;;43.33;28.02;;;4.80;99.90;;;;;;5009279;28;20236;-74
2021/03/18 08:33:38;;;;;;;61.83;32.10;;;4.80;99.90;;;;;;5052704;28;20248;-75
2021/03/18 08:36:20;;;;;;;44.28;29.08;;;4.80;99.90;;;;;;5018428;28;20231;-75
2021/03/18 08:38:47;;;;;;;58.53;34.30;;;4.90;99.90;;;;;;5037914;28;20252;-75
2021/03/18 08:41:27;;;;;;;54.65;35.50;;;4.90;1.00;;;;;;5036626;28;20289;-75
2021/03/18 08:44:11;;;;;;;53.35;32.30;;;5.00;1.00;;;;;;5020677;28;20213;-74
2021/03/18 08:46:39;;;;;;;48.60;31.33;;;5.00;1.00;;;;;;5037750;28;20726;-74
2021/03/18 08:49:19;;;;;;;49.00;29.17;;;5.00;99.90;;;;;;5031789;28;20707;-74
2021/03/18 08:51:47;;;;;;;42.78;28.73;;;5.10;99.90;;;;;;5013172;28;20617;-74
2021/03/18 08:54:48;;;;;;;48.45;28.38;;;5.10;99.90;;;;;;5032589;28;20215;-75
2021/03/18 08:57:25;;;;;;;44.63;28.65;;;5.20;99.90;;;;;;5020525;28;20223;-75
2021/03/18 08:59:55;;;;;;;49.20;31.55;;;5.20;99.90;;;;;;5017093;28;20675;-75
2021/03/18 09:02:30;;;;;;;43.58;29.95;;;5.30;2.10;;;;;;5014825;28;20247;-74
2021/03/18 09:04:57;;;;;;;46.17;29.13;;;5.40;10.90;;;;;;4997709;28;20215;-75
2021/03/18 09:07:26;;;;;;;43.35;30.25;;;5.50;99.90;;;;;;5027555;28;20281;-74
2021/03/18 09:10:09;;;;;;;44.55;29.85;;;5.50;99.90;;;;;;5023074;28;20195;-74
2021/03/18 09:12:40;;;;;;;47.85;28.23;;;5.60;1.00;;;;;;5051603;28;20285;-74
2021/03/18 09:15:12;;;;;;;44.03;28.00;;;5.60;1.00;;;;;;5051207;28;20302;-74
2021/03/18 09:17:39;;;;;;;48.83;29.88;;;5.60;1.00;;;;;;5017711;28;20313;-74
2021/03/18 09:20:08;;;;;;;51.00;30.58;;;5.70;1.00;;;;;;5017317;28;20227;-75
2021/03/18 09:22:35;;;;;;;47.45;29.52;;;5.70;1.00;;;;;;5033627;28;20196;-74
2021/03/18 09:25:01;;;;;;;57.72;33.38;;;5.70;99.90;;;;;;5016230;28;20211;-74
2021/03/18 09:27:35;;;;;;;49.90;29.98;;;5.80;99.90;;;;;;5016697;28;20614;-74
2021/03/18 09:30:23;;;;;;;63.35;34.40;;;5.80;99.90;;;;;;5035792;28;20195;-76
2021/03/18 09:32:51;;;;;;;53.95;32.38;;;5.80;1.00;;;;;;5034819;28;20640;-75
2021/03/18 09:35:19;;;;;;;47.42;29.23;;;5.90;1.00;;;;;;5030976;28;20258;-75
2021/03/18 09:37:46;;;;;;;47.15;28.05;;;6.00;99.90;;;;;;5013999;28;20224;-74
2021/03/18 09:40:15;;;;;;;50.22;28.75;;;6.00;99.90;;;;;;5031819;28;20280;-75
2021/03/18 09:42:41;;;;;;;50.10;29.20;;;6.10;1.00;;;;;;4999274;28;20200;-75
2021/03/18 09:45:09;;;;;;;41.10;29.00;;;6.20;99.90;;;;;;5032366;28;20320;-75
2021/03/18 09:47:38;;;;;;;44.35;27.20;;;6.20;99.90;;;;;;5033327;28;20689;-76
2021/03/18 09:50:06;;;;;;;48.33;29.25;;;6.30;99.90;;;;;;5036706;28;20205;-74
2021/03/18 09:52:33;;;;;;;47.13;29.23;;;6.30;99.90;;;;;;5033668;28;20196;-74
2021/03/18 09:55:02;;;;;;;46.45;29.77;;;6.40;99.90;;;;;;5031307;28;20792;-75
2021/03/18 09:57:30;;;;;;;48.95;31.77;;;6.50;99.90;;;;;;5031086;28;20248;-75
2021/03/18 09:59:57;;;;;;;45.75;29.63;;;6.50;99.90;;;;;;5013729;28;20200;-75
2021/03/18 10:02:28;;;;;;;43.00;28.83;;;6.60;1.00;;;;;;5015218;28;20195;-75
2021/03/18 10:04:56;;;;;;;47.58;31.00;;;6.70;1.00;;;;;;5015458;28;20503;-75
2021/03/18 10:07:27;;;;;;;53.35;32.63;;;6.70;1.00;;;;;;5033391;28;20292;-74
2021/03/18 10:09:54;;;;;;;52.43;31.47;;;6.70;1.00;;;;;;4999748;28;20285;-74
2021/03/18 10:12:22;;;;;;;52.55;30.65;;;6.80;1.00;;;;;;5035441;28;20519;-75
2021/03/18 10:14:54;;;;;;;45.85;29.88;;;6.90;99.90;;;;;;5018323;28;20237;-74
2021/03/18 10:17:26;;;;;;;45.72;30.05;;;7.00;1.00;;;;;;5013389;28;20224;-74
2021/03/18 10:19:57;;;;;;;49.85;29.75;;;7.00;21.10;;;;;;5013958;28;20195;-75
2021/03/18 10:22:29;;;;;;;48.50;31.13;;;7.00;99.90;;;;;;5013878;28;20228;-74
2021/03/18 10:25:04;;;;;;;47.08;30.25;;;7.00;1.00;;;;;;5032195;28;20227;-75
2021/03/18 10:27:32;;;;;;;46.93;29.70;;;7.00;99.90;;;;;;5032589;28;20244;-73
2021/03/18 10:30:11;;;;;;;47.90;31.70;;;7.10;7.10;;;;;;5014434;28;20448;-76
2021/03/18 10:32:38;;;;;;;51.17;30.03;;;7.20;81.30;;;;;;5014977;28;20439;-75
2021/03/18 10:35:08;;;;;;;43.27;29.33;;;7.20;1.00;;;;;;5013982;28;20832;-75
2021/03/18 10:37:38;;;;;;;48.70;28.90;;;7.20;99.90;;;;;;5013706;28;20513;-74
2021/03/18 10:40:14;;;;;;;43.37;29.63;;;7.30;1.00;;;;;;5009947;28;20446;-75
2021/03/18 10:42:42;;;;;;;43.43;31.10;;;7.30;1.00;;;;;;5010836;28;20923;-75
2021/03/18 10:45:13;;;;;;;40.07;27.27;;;7.40;99.90;;;;;;5009566;28;21073;-74
2021/03/18 10:47:41;;;;;;;43.00;25.67;;;7.50;48.00;;;;;;5011211;28;20509;-75
2021/03/18 10:50:11;;;;;;;32.73;23.07;;;7.50;99.90;;;;;;5012023;28;20450;-74
2021/03/18 10:52:39;;;;;;;33.83;23.30;;;7.50;99.90;;;;;;5012682;28;20446;-75
2021/03/18 10:55:07;;;;;;;39.57;24.30;;;7.50;99.90;;;;;;5011455;28;20471;-74
2021/03/18 10:57:36;;;;;;;38.13;22.30;;;7.60;99.90;;;;;;5013833;28;20579;-74
2021/03/18 11:00:07;;;;;;;27.60;17.80;;;7.60;1.00;;;;;;5018742;28;20493;-75
2021/03/18 11:02:33;;;;;;;19.47;13.47;;;7.70;1.80;;;;;;5027305;28;21118;-74
2021/03/18 11:05:03;;;;;;;22.47;12.87;;;7.80;99.90;;;;;;5009777;28;20820;-75
2021/03/18 11:07:31;;;;;;;21.77;13.27;;;7.90;99.90;;;;;;5010179;28;20526;-74
2021/03/18 11:10:13;;;;;;;21.50;13.30;;;7.90;99.90;;;;;;5012191;28;20848;-74
2021/03/18 11:12:41;;;;;;;20.40;13.40;;;8.00;99.90;;;;;;5011134;28;20967;-75
2021/03/18 11:15:10;;;;;;;23.80;13.90;;;8.00;99.90;;;;;;5012554;28;20480;-75
2021/03/18 11:17:37;;;;;;;20.20;15.63;;;8.10;99.90;;;;;;4999271;28;20489;-74
2021/03/18 11:20:09;;;;;;;21.30;14.47;;;8.10;93.80;;;;;;5016435;28;20984;-75
2021/03/18 11:22:36;;;;;;;20.20;15.00;;;8.10;92.80;;;;;;5019052;28;20945;-75
2021/03/18 11:25:04;;;;;;;22.43;14.13;;;8.20;76.60;;;;;;5013339;28;20541;-75
2021/03/18 11:27:31;;;;;;;21.50;14.67;;;8.20;64.10;;;;;;5012549;28;20450;-75
2021/03/18 11:29:59;;;;;;;18.10;14.30;;;8.20;37.50;;;;;;5012752;28;20457;-74
2021/03/18 11:32:26;;;;;;;24.00;14.60;;;8.20;33.10;;;;;;5014783;28;20533;-74
2021/03/18 11:34:54;;;;;;;22.23;14.50;;;8.20;79.80;;;;;;5020272;28;20558;-74
2021/03/18 11:37:21;;;;;;;19.17;12.67;;;8.20;99.90;;;;;;5018030;28;20572;-74
2021/03/18 11:39:49;;;;;;;16.60;10.57;;;8.30;83.90;;;;;;5035974;28;20469;-74
2021/03/18 11:42:15;;;;;;;14.63;10.43;;;8.30;2.00;;;;;;5037204;28;20517;-74
2021/03/18 11:44:42;;;;;;;15.70;9.93;;;8.30;1.00;;;;;;5039633;28;20465;-75
2021/03/18 11:47:11;;;;;;;12.17;8.23;;;8.30;1.00;;;;;;5044572;28;21022;-74
2021/03/18 11:49:39;;;;;;;15.23;8.10;;;8.30;1.00;;;;;;5033498;28;20528;-75
2021/03/18 11:52:07;;;;;;;18.60;8.70;;;8.30;1.00;;;;;;5033572;28;20506;-75
2021/03/18 11:54:34;;;;;;;12.37;7.67;;;8.30;1.00;;;;;;4999084;28;20461;-74
2021/03/18 11:57:02;;;;;;;12.93;8.87;;;8.30;1.00;;;;;;5031092;28;20477;-74
2021/03/18 11:59:29;;;;;;;14.80;9.60;;;8.30;1.00;;;;;;5001237;28;20541;-74
2021/03/18 12:01:55;;;;;;;13.10;9.50;;;8.40;1.00;;;;;;5034296;28;20521;-74
2021/03/18 12:04:22;;;;;;;14.53;10.37;;;8.50;1.00;;;;;;5034733;28;20553;-74
2021/03/18 12:06:49;;;;;;;12.93;8.17;;;8.60;1.00;;;;;;5037795;28;20521;-74
2021/03/18 12:09:16;;;;;;;10.63;6.80;;;8.60;1.00;;;;;;5018278;28;20478;-75
2021/03/18 12:11:43;;;;;;;9.53;6.30;;;8.60;1.00;;;;;;5015471;28;20525;-74
2021/03/18 12:14:10;;;;;;;7.67;5.60;;;8.60;1.00;;;;;;5033111;28;20476;-74
2021/03/18 12:16:37;;;;;;;8.30;6.10;;;8.60;1.00;;;;;;5015117;28;20568;-75
2021/03/18 12:19:04;;;;;;;8.47;5.40;;;8.60;1.00;;;;;;5033669;28;20500;-74
2021/03/18 12:21:30;;;;;;;7.87;5.20;;;8.60;1.00;;;;;;5035467;28;21001;-74
2021/03/18 12:23:57;;;;;;;12.87;5.10;;;8.30;1.00;;;;;;5035351;28;20556;-74
2021/03/18 12:26:24;;;;;;;8.07;4.70;;;8.60;1.00;;;;;;5035159;28;20953;-74
2021/03/18 12:28:50;;;;;;;7.90;4.77;;;8.70;1.00;;;;;;5038078;28;20470;-74
2021/03/18 12:31:18;;;;;;;7.97;5.03;;;8.60;1.00;;;;;;5042147;28;20523;-75
2021/03/18 12:33:44;;;;;;;7.57;4.30;;;8.60;1.00;;;;;;5049323;28;20540;-74
2021/03/18 12:36:11;;;;;;;6.67;4.50;;;8.60;1.00;;;;;;5048480;28;21002;-75
2021/03/18 12:38:37;;;;;;;7.33;4.30;;;8.60;1.00;;;;;;5049038;28;20492;-75
2021/03/18 12:41:04;;;;;;;9.90;4.80;;;8.60;1.00;;;;;;5037247;28;21053;-75
2021/03/18 12:43:31;;;;;;;8.90;5.03;;;8.60;1.00;;;;;;5034722;28;20552;-75
2021/03/18 12:45:57;;;;;;;8.73;5.23;;;8.70;1.00;;;;;;5039620;28;20433;-74
2021/03/18 12:48:25;;;;;;;7.77;4.17;;;8.60;1.00;;;;;;5049213;28;20864;-74
2021/03/18 12:50:52;;;;;;;6.63;3.90;;;8.70;1.00;;;;;;5048681;28;20480;-74
2021/03/18 12:53:18;;;;;;;6.87;5.03;;;8.60;1.00;;;;;;5049625;28;20444;-75
2021/03/18 12:55:48;;;;;;;7.83;5.30;;;8.70;1.00;;;;;;5034569;28;20492;-76
2021/03/18 12:58:15;;;;;;;11.03;5.70;;;8.70;1.00;;;;;;5030621;28;20485;-76
2021/03/18 13:00:42;;;;;;;8.27;5.63;;;8.70;1.00;;;;;;5030776;28;20472;-74